LHA8280 RJTT-ZBAD
Flight info
| Callsign | LHA8280 |
|---|---|
| Flight time | 2h 58m |
| Altitude | 32000 |
| Route | NINOX Y28 IPLES Y207 APILU Y295 YME Y18 LEPGU/N0473F340 Y18 MIHOU Y38 SAPRA G585 SEL G597 AGAVO/K0841S1040 A591 IKEKA W4 HCH W200 DOVIV W55 DUMAP |
| Aircraft | A339/H-SDE1E2FGHIJ4RWXYZ/S |
Departure
| Time | 2026-04-24 08:09 |
|---|---|
| Airport | Tokyo Haneda International Airport (RJTT) |
Arrival
| Time | 2026-04-24 11:08 |
|---|---|
| Airport | Beijing Daxing International Airport (ZBAD) |
| Time | Latitude | Longitude | Altitude | Speed | Heading |
|---|---|---|---|---|---|
| 2026-04-24 07:53 | 35.55322 | 139.78831 | 28 ft | 0 kts | 240° |
| 2026-04-24 08:00 | 35.55328 | 139.78844 | 28 ft | 3 kts | 245° |
| 2026-04-24 08:00 | 35.55336 | 139.78866 | 27 ft | 3 kts | 256° |
| 2026-04-24 08:00 | 35.55341 | 139.78889 | 27 ft | 3 kts | 272° |
| 2026-04-24 08:01 | 35.55340 | 139.78912 | 26 ft | 3 kts | 293° |
| 2026-04-24 08:01 | 35.55333 | 139.78933 | 26 ft | 3 kts | 313° |
| 2026-04-24 08:01 | 35.55319 | 139.78950 | 26 ft | 3 kts | 327° |
| 2026-04-24 08:01 | 35.55302 | 139.78963 | 27 ft | 2 kts | 331° |
| 2026-04-24 08:02 | 35.55297 | 139.78966 | 26 ft | 0 kts | 330° |
| 2026-04-24 08:04 | 35.55332 | 139.78942 | 28 ft | 9 kts | 331° |
| 2026-04-24 08:05 | 35.55395 | 139.78950 | 28 ft | 9 kts | 28° |
| 2026-04-24 08:05 | 35.55436 | 139.79011 | 28 ft | 9 kts | 58° |
| 2026-04-24 08:05 | 35.55468 | 139.79075 | 27 ft | 9 kts | 59° |
| 2026-04-24 08:05 | 35.55507 | 139.79133 | 28 ft | 9 kts | 40° |
| 2026-04-24 08:06 | 35.55561 | 139.79127 | 29 ft | 10 kts | 333° |
| 2026-04-24 08:06 | 35.55658 | 139.79062 | 29 ft | 21 kts | 330° |
| 2026-04-24 08:06 | 35.55809 | 139.78954 | 29 ft | 30 kts | 329° |
| 2026-04-24 08:06 | 35.55997 | 139.78821 | 29 ft | 29 kts | 330° |
| 2026-04-24 08:07 | 35.56077 | 139.78767 | 29 ft | 10 kts | 337° |
| 2026-04-24 08:07 | 35.56140 | 139.78784 | 29 ft | 9 kts | 29° |
| 2026-04-24 08:07 | 35.56163 | 139.78838 | 29 ft | 7 kts | 61° |
| 2026-04-24 08:07 | 35.56188 | 139.78893 | 29 ft | 7 kts | 61° |
| 2026-04-24 08:08 | 35.56201 | 139.78939 | 30 ft | 4 kts | 91° |
| 2026-04-24 08:08 | 35.56185 | 139.78948 | 25 ft | 1 kts | 149° |
| 2026-04-24 08:09 | 35.55201 | 139.79641 | 30 ft | 152 kts | 149° |
| 2026-04-24 08:09 | 35.54159 | 139.80355 | 175 ft | 187 kts | 148° |
| 2026-04-24 08:09 | 35.52967 | 139.81087 | 814 ft | 197 kts | 149° |
| 2026-04-24 08:09 | 35.51757 | 139.81921 | 1540 ft | 202 kts | 147° |
| 2026-04-24 08:10 | 35.50550 | 139.82850 | 2247 ft | 207 kts | 142° |
| 2026-04-24 08:10 | 35.49335 | 139.83836 | 2993 ft | 211 kts | 144° |
| 2026-04-24 08:10 | 35.48088 | 139.84803 | 3736 ft | 213 kts | 145° |
| 2026-04-24 08:10 | 35.46842 | 139.85801 | 4421 ft | 217 kts | 143° |
| 2026-04-24 08:11 | 35.45584 | 139.86888 | 5051 ft | 223 kts | 142° |
| 2026-04-24 08:11 | 35.44154 | 139.87520 | 5816 ft | 221 kts | 173° |
| 2026-04-24 08:11 | 35.42608 | 139.87274 | 6317 ft | 230 kts | 204° |
| 2026-04-24 08:11 | 35.41275 | 139.86190 | 6784 ft | 234 kts | 229° |
| 2026-04-24 08:12 | 35.40436 | 139.84447 | 7055 ft | 246 kts | 257° |
| 2026-04-24 08:12 | 35.40327 | 139.82315 | 7314 ft | 259 kts | 279° |
| 2026-04-24 08:12 | 35.40676 | 139.80084 | 7643 ft | 272 kts | 285° |
| 2026-04-24 08:12 | 35.41071 | 139.77801 | 8281 ft | 275 kts | 283° |
| 2026-04-24 08:13 | 35.41375 | 139.75480 | 8941 ft | 277 kts | 279° |
| 2026-04-24 08:13 | 35.41592 | 139.73126 | 9621 ft | 279 kts | 276° |
| 2026-04-24 08:13 | 35.41757 | 139.70747 | 10233 ft | 283 kts | 275° |
| 2026-04-24 08:13 | 35.41903 | 139.68267 | 10445 ft | 301 kts | 274° |
| 2026-04-24 08:14 | 35.42050 | 139.65630 | 10615 ft | 319 kts | 274° |
| 2026-04-24 08:14 | 35.42205 | 139.62857 | 10960 ft | 329 kts | 274° |
| 2026-04-24 08:14 | 35.42363 | 139.60068 | 11552 ft | 332 kts | 275° |
| 2026-04-24 08:14 | 35.42525 | 139.57228 | 12199 ft | 332 kts | 275° |
| 2026-04-24 08:15 | 35.42687 | 139.54401 | 12824 ft | 333 kts | 275° |
| 2026-04-24 08:15 | 35.42850 | 139.51554 | 13430 ft | 336 kts | 275° |
| 2026-04-24 08:15 | 35.43014 | 139.48696 | 14023 ft | 337 kts | 275° |
| 2026-04-24 08:15 | 35.43178 | 139.45835 | 14643 ft | 336 kts | 275° |
| 2026-04-24 08:16 | 35.43341 | 139.42987 | 15264 ft | 334 kts | 274° |
| 2026-04-24 08:16 | 35.43503 | 139.40142 | 15853 ft | 334 kts | 274° |
| 2026-04-24 08:16 | 35.43665 | 139.37300 | 16450 ft | 334 kts | 274° |
| 2026-04-24 08:16 | 35.43825 | 139.34458 | 17047 ft | 334 kts | 274° |
| 2026-04-24 08:17 | 35.43984 | 139.31621 | 17630 ft | 334 kts | 274° |
| 2026-04-24 08:17 | 35.44143 | 139.28779 | 18240 ft | 334 kts | 273° |
| 2026-04-24 08:17 | 35.44303 | 139.25926 | 18677 ft | 337 kts | 273° |
| 2026-04-24 08:17 | 35.44463 | 139.23040 | 19089 ft | 340 kts | 273° |
| 2026-04-24 08:18 | 35.44623 | 139.20171 | 19686 ft | 338 kts | 272° |
| 2026-04-24 08:18 | 35.44788 | 139.17275 | 19997 ft | 342 kts | 272° |
| 2026-04-24 08:18 | 35.44948 | 139.14380 | 20581 ft | 340 kts | 272° |
| 2026-04-24 08:18 | 35.45106 | 139.11468 | 20986 ft | 344 kts | 271° |
| 2026-04-24 08:19 | 35.45263 | 139.08530 | 21467 ft | 346 kts | 271° |
| 2026-04-24 08:19 | 35.45421 | 139.05594 | 21963 ft | 348 kts | 271° |
| 2026-04-24 08:19 | 35.45580 | 139.02653 | 22404 ft | 350 kts | 271° |
| 2026-04-24 08:19 | 35.45744 | 138.99634 | 22914 ft | 351 kts | 270° |
| 2026-04-24 08:20 | 35.45904 | 138.96637 | 23324 ft | 355 kts | 270° |
| 2026-04-24 08:20 | 35.46064 | 138.93608 | 23762 ft | 357 kts | 270° |
| 2026-04-24 08:20 | 35.46222 | 138.90620 | 24265 ft | 354 kts | 270° |
| 2026-04-24 08:20 | 35.46382 | 138.87624 | 24870 ft | 351 kts | 269° |
| 2026-04-24 08:21 | 35.46538 | 138.84637 | 25320 ft | 351 kts | 269° |
| 2026-04-24 08:21 | 35.46693 | 138.81646 | 25800 ft | 351 kts | 269° |
| 2026-04-24 08:21 | 35.46847 | 138.78660 | 26290 ft | 350 kts | 269° |
| 2026-04-24 08:21 | 35.47001 | 138.75690 | 26782 ft | 349 kts | 269° |
| 2026-04-24 08:22 | 35.47155 | 138.72713 | 27220 ft | 349 kts | 268° |
| 2026-04-24 08:22 | 35.47307 | 138.69738 | 27661 ft | 349 kts | 268° |
| 2026-04-24 08:22 | 35.47361 | 138.66773 | 28097 ft | 347 kts | 264° |
| 2026-04-24 08:22 | 35.47217 | 138.63829 | 28526 ft | 346 kts | 262° |
| 2026-04-24 08:23 | 35.47049 | 138.60886 | 28964 ft | 346 kts | 262° |
| 2026-04-24 08:23 | 35.46893 | 138.57943 | 29406 ft | 346 kts | 262° |
| 2026-04-24 08:23 | 35.46741 | 138.55014 | 29934 ft | 343 kts | 262° |
| 2026-04-24 08:23 | 35.46576 | 138.52079 | 30151 ft | 346 kts | 262° |
| 2026-04-24 08:24 | 35.46411 | 138.49128 | 30475 ft | 348 kts | 262° |
| 2026-04-24 08:24 | 35.46259 | 138.46163 | 30813 ft | 349 kts | 262° |
| 2026-04-24 08:24 | 35.46105 | 138.43190 | 31107 ft | 350 kts | 262° |
| 2026-04-24 08:24 | 35.45945 | 138.40199 | 31375 ft | 352 kts | 262° |
| 2026-04-24 08:25 | 35.45781 | 138.37206 | 31641 ft | 353 kts | 261° |
| 2026-04-24 08:25 | 35.45614 | 138.34198 | 32044 ft | 353 kts | 261° |
| 2026-04-24 08:25 | 35.45447 | 138.31160 | 32189 ft | 361 kts | 261° |
| 2026-04-24 08:25 | 35.45278 | 138.28075 | 32325 ft | 364 kts | 261° |
| 2026-04-24 08:26 | 35.45109 | 138.24982 | 32575 ft | 363 kts | 262° |
| 2026-04-24 08:26 | 35.44949 | 138.22057 | 32813 ft | 364 kts | 261° |
| 2026-04-24 08:26 | 35.44816 | 138.19559 | 33070 ft | 361 kts | 261° |
| 2026-04-24 08:26 | 35.44703 | 138.17535 | 33266 ft | 360 kts | 261° |
| 2026-04-24 08:27 | 35.44532 | 138.14482 | 33539 ft | 358 kts | 261° |
| 2026-04-24 08:27 | 35.44361 | 138.11451 | 33828 ft | 354 kts | 261° |
| 2026-04-24 08:27 | 35.44189 | 138.08434 | 33928 ft | 354 kts | 261° |
| 2026-04-24 08:28 | 35.44091 | 138.02381 | 34000 ft | 361 kts | 266° |
| 2026-04-24 08:28 | 35.44532 | 137.96250 | 33986 ft | 362 kts | 269° |
| 2026-04-24 08:29 | 35.45256 | 137.90103 | 33997 ft | 364 kts | 270° |
| 2026-04-24 08:29 | 35.45934 | 137.83965 | 33997 ft | 362 kts | 269° |
| 2026-04-24 08:30 | 35.46541 | 137.77830 | 33980 ft | 362 kts | 269° |
| 2026-04-24 08:30 | 35.47131 | 137.71714 | 33983 ft | 361 kts | 269° |
| 2026-04-24 08:31 | 35.47716 | 137.65631 | 33964 ft | 361 kts | 269° |
| 2026-04-24 08:31 | 35.48296 | 137.59509 | 33984 ft | 363 kts | 269° |
| 2026-04-24 08:32 | 35.48883 | 137.53374 | 33984 ft | 362 kts | 269° |
| 2026-04-24 08:32 | 35.49464 | 137.47223 | 33982 ft | 363 kts | 269° |
| 2026-04-24 08:33 | 35.50038 | 137.41077 | 33976 ft | 362 kts | 269° |
| 2026-04-24 08:33 | 35.50613 | 137.34929 | 33985 ft | 363 kts | 268° |
| 2026-04-24 08:34 | 35.51183 | 137.28776 | 33968 ft | 362 kts | 268° |
| 2026-04-24 08:34 | 35.51747 | 137.22620 | 33980 ft | 363 kts | 268° |
| 2026-04-24 08:35 | 35.52310 | 137.16470 | 33973 ft | 362 kts | 268° |
| 2026-04-24 08:35 | 35.52871 | 137.10307 | 33973 ft | 363 kts | 268° |
| 2026-04-24 08:36 | 35.53429 | 137.04142 | 33977 ft | 364 kts | 268° |
| 2026-04-24 08:36 | 35.53984 | 136.97968 | 33973 ft | 364 kts | 268° |
| 2026-04-24 08:37 | 35.54538 | 136.91794 | 33970 ft | 364 kts | 268° |
| 2026-04-24 08:37 | 35.55081 | 136.85613 | 33976 ft | 364 kts | 268° |
| 2026-04-24 08:38 | 35.55629 | 136.79410 | 33976 ft | 365 kts | 268° |
| 2026-04-24 08:38 | 35.56179 | 136.73214 | 33976 ft | 365 kts | 268° |
| 2026-04-24 08:39 | 35.56719 | 136.67013 | 33986 ft | 365 kts | 268° |
| 2026-04-24 08:39 | 35.57258 | 136.60864 | 33982 ft | 364 kts | 268° |
| 2026-04-24 08:40 | 35.57789 | 136.54654 | 33980 ft | 366 kts | 268° |
| 2026-04-24 08:40 | 35.58324 | 136.48438 | 33985 ft | 368 kts | 268° |
| 2026-04-24 08:41 | 35.58857 | 136.42202 | 33979 ft | 367 kts | 268° |
| 2026-04-24 08:41 | 35.59386 | 136.35959 | 33991 ft | 367 kts | 268° |
| 2026-04-24 08:42 | 35.59913 | 136.29715 | 33995 ft | 367 kts | 268° |
| 2026-04-24 08:42 | 35.60435 | 136.23473 | 33997 ft | 368 kts | 268° |
| 2026-04-24 08:43 | 35.60956 | 136.17237 | 34003 ft | 367 kts | 268° |
| 2026-04-24 08:43 | 35.61473 | 136.11000 | 34001 ft | 367 kts | 268° |
| 2026-04-24 08:44 | 35.61984 | 136.04756 | 34013 ft | 368 kts | 268° |
| 2026-04-24 08:44 | 35.62489 | 135.98541 | 34017 ft | 368 kts | 268° |
| 2026-04-24 08:45 | 35.63001 | 135.92262 | 34022 ft | 370 kts | 268° |
| 2026-04-24 08:45 | 35.63509 | 135.85973 | 34030 ft | 370 kts | 268° |
| 2026-04-24 08:46 | 35.64008 | 135.79677 | 34030 ft | 371 kts | 268° |
| 2026-04-24 08:46 | 35.64513 | 135.73357 | 34045 ft | 372 kts | 268° |
| 2026-04-24 08:47 | 35.65016 | 135.67020 | 34050 ft | 373 kts | 268° |
| 2026-04-24 08:47 | 35.65515 | 135.60673 | 34060 ft | 373 kts | 268° |
| 2026-04-24 08:48 | 35.66010 | 135.54315 | 34059 ft | 374 kts | 268° |
| 2026-04-24 08:48 | 35.66502 | 135.47954 | 34063 ft | 374 kts | 268° |
| 2026-04-24 08:49 | 35.66992 | 135.41581 | 34072 ft | 374 kts | 268° |
| 2026-04-24 08:49 | 35.67478 | 135.35206 | 34072 ft | 375 kts | 268° |
| 2026-04-24 08:50 | 35.67962 | 135.28825 | 34074 ft | 375 kts | 268° |
| 2026-04-24 08:50 | 35.68443 | 135.22427 | 34074 ft | 376 kts | 268° |
| 2026-04-24 08:51 | 35.68921 | 135.16019 | 34072 ft | 375 kts | 268° |
| 2026-04-24 08:51 | 35.69396 | 135.09611 | 34079 ft | 377 kts | 268° |
| 2026-04-24 08:52 | 35.69870 | 135.03182 | 34087 ft | 378 kts | 268° |
| 2026-04-24 08:52 | 35.70340 | 134.96743 | 34091 ft | 378 kts | 268° |
| 2026-04-24 08:53 | 35.70808 | 134.90286 | 34096 ft | 379 kts | 268° |
| 2026-04-24 08:53 | 35.71274 | 134.83811 | 34101 ft | 380 kts | 268° |
| 2026-04-24 08:54 | 35.71737 | 134.77321 | 34098 ft | 381 kts | 268° |
| 2026-04-24 08:54 | 35.72199 | 134.70816 | 34105 ft | 382 kts | 268° |
| 2026-04-24 08:55 | 35.72658 | 134.64296 | 34098 ft | 383 kts | 268° |
| 2026-04-24 08:55 | 35.73115 | 134.57755 | 34094 ft | 384 kts | 268° |
| 2026-04-24 08:56 | 35.73566 | 134.51243 | 34095 ft | 385 kts | 268° |
| 2026-04-24 08:56 | 35.74018 | 134.44667 | 34100 ft | 386 kts | 268° |
| 2026-04-24 08:57 | 35.74467 | 134.38071 | 34100 ft | 387 kts | 268° |
| 2026-04-24 08:57 | 35.74915 | 134.31455 | 34099 ft | 388 kts | 268° |
| 2026-04-24 08:58 | 35.75359 | 134.24821 | 34103 ft | 389 kts | 268° |
| 2026-04-24 08:58 | 35.75802 | 134.18163 | 34104 ft | 390 kts | 268° |
| 2026-04-24 08:59 | 35.76242 | 134.11493 | 34108 ft | 391 kts | 268° |
| 2026-04-24 08:59 | 35.76680 | 134.04805 | 34109 ft | 392 kts | 268° |
| 2026-04-24 09:00 | 35.77114 | 133.98100 | 34109 ft | 393 kts | 268° |
| 2026-04-24 09:00 | 35.77546 | 133.91378 | 34109 ft | 394 kts | 268° |
| 2026-04-24 09:01 | 35.77975 | 133.84641 | 34112 ft | 395 kts | 268° |
| 2026-04-24 09:01 | 35.78402 | 133.77889 | 34115 ft | 396 kts | 269° |
| 2026-04-24 09:02 | 35.78825 | 133.71122 | 34116 ft | 397 kts | 269° |
| 2026-04-24 09:02 | 35.79246 | 133.64337 | 34111 ft | 397 kts | 269° |
| 2026-04-24 09:03 | 35.79664 | 133.57545 | 34111 ft | 398 kts | 269° |
| 2026-04-24 09:03 | 35.80077 | 133.50745 | 34117 ft | 398 kts | 269° |
| 2026-04-24 09:04 | 35.80488 | 133.43940 | 34115 ft | 399 kts | 269° |
| 2026-04-24 09:04 | 35.80895 | 133.37123 | 34113 ft | 399 kts | 269° |
| 2026-04-24 09:05 | 35.81296 | 133.30340 | 34113 ft | 400 kts | 269° |
| 2026-04-24 09:05 | 35.81699 | 133.23460 | 34110 ft | 400 kts | 269° |
| 2026-04-24 09:06 | 35.82093 | 133.16657 | 34114 ft | 401 kts | 269° |
| 2026-04-24 09:06 | 35.82488 | 133.09798 | 34115 ft | 401 kts | 269° |
| 2026-04-24 09:07 | 35.82878 | 133.02935 | 34106 ft | 402 kts | 269° |
| 2026-04-24 09:07 | 35.83457 | 132.92626 | 34106 ft | 402 kts | 269° |
| 2026-04-24 09:08 | 35.83838 | 132.85753 | 34111 ft | 402 kts | 269° |
| 2026-04-24 09:08 | 35.84216 | 132.78875 | 34115 ft | 402 kts | 269° |
| 2026-04-24 09:09 | 35.84589 | 132.71988 | 34106 ft | 403 kts | 269° |
| 2026-04-24 09:09 | 35.84959 | 132.65099 | 34112 ft | 403 kts | 269° |
| 2026-04-24 09:10 | 35.85325 | 132.58204 | 34100 ft | 403 kts | 269° |
| 2026-04-24 09:10 | 35.85688 | 132.51304 | 34106 ft | 404 kts | 269° |
| 2026-04-24 09:11 | 35.86047 | 132.44400 | 34101 ft | 404 kts | 269° |
| 2026-04-24 09:11 | 35.86402 | 132.37486 | 34101 ft | 404 kts | 269° |
| 2026-04-24 09:12 | 35.86754 | 132.30573 | 34104 ft | 404 kts | 269° |
| 2026-04-24 09:12 | 35.87101 | 132.23651 | 34102 ft | 405 kts | 269° |
| 2026-04-24 09:13 | 35.87443 | 132.16769 | 34103 ft | 405 kts | 269° |
| 2026-04-24 09:13 | 35.87783 | 132.09836 | 34109 ft | 405 kts | 269° |
| 2026-04-24 09:14 | 35.88120 | 132.02896 | 34104 ft | 406 kts | 269° |
| 2026-04-24 09:14 | 35.88453 | 131.95946 | 34102 ft | 406 kts | 269° |
| 2026-04-24 09:15 | 35.88782 | 131.88993 | 34106 ft | 406 kts | 269° |
| 2026-04-24 09:15 | 35.89108 | 131.82034 | 34105 ft | 407 kts | 269° |
| 2026-04-24 09:16 | 35.89429 | 131.75071 | 34107 ft | 407 kts | 269° |
| 2026-04-24 09:16 | 35.89748 | 131.68090 | 34108 ft | 408 kts | 269° |
| 2026-04-24 09:17 | 35.90009 | 131.62285 | 34105 ft | 408 kts | 269° |
| 2026-04-24 09:17 | 35.90321 | 131.55293 | 34111 ft | 409 kts | 269° |
| 2026-04-24 09:18 | 35.90629 | 131.48287 | 34103 ft | 409 kts | 269° |
| 2026-04-24 09:18 | 35.90933 | 131.41278 | 34108 ft | 409 kts | 269° |
| 2026-04-24 09:19 | 35.91233 | 131.34262 | 34112 ft | 410 kts | 269° |
| 2026-04-24 09:19 | 35.91529 | 131.27240 | 34107 ft | 410 kts | 269° |
| 2026-04-24 09:20 | 35.91871 | 131.19025 | 34114 ft | 410 kts | 269° |
| 2026-04-24 09:20 | 35.92110 | 131.13194 | 34104 ft | 411 kts | 269° |
| 2026-04-24 09:21 | 35.92395 | 131.06154 | 34112 ft | 411 kts | 269° |
| 2026-04-24 09:21 | 35.93244 | 130.99150 | 34108 ft | 419 kts | 281° |
| 2026-04-24 09:22 | 35.94956 | 130.92261 | 34109 ft | 420 kts | 281° |
| 2026-04-24 09:22 | 35.96668 | 130.85361 | 34116 ft | 422 kts | 284° |
| 2026-04-24 09:23 | 35.98644 | 130.78572 | 34114 ft | 423 kts | 284° |
| 2026-04-24 09:23 | 36.00420 | 130.72165 | 34120 ft | 423 kts | 283° |
| 2026-04-24 09:24 | 36.02264 | 130.65259 | 34122 ft | 424 kts | 283° |
| 2026-04-24 09:24 | 36.04096 | 130.58337 | 34123 ft | 424 kts | 283° |
| 2026-04-24 09:25 | 36.05928 | 130.51403 | 34123 ft | 425 kts | 283° |
| 2026-04-24 09:25 | 36.07760 | 130.44454 | 34126 ft | 425 kts | 283° |
| 2026-04-24 09:26 | 36.09590 | 130.37496 | 34124 ft | 426 kts | 283° |
| 2026-04-24 09:26 | 36.11417 | 130.30531 | 34126 ft | 426 kts | 283° |
| 2026-04-24 09:27 | 36.13244 | 130.23547 | 34131 ft | 427 kts | 283° |
| 2026-04-24 09:27 | 36.15066 | 130.16555 | 34130 ft | 427 kts | 283° |
| 2026-04-24 09:28 | 36.16882 | 130.09558 | 34129 ft | 427 kts | 283° |
| 2026-04-24 09:28 | 36.18696 | 130.02551 | 34126 ft | 428 kts | 283° |
| 2026-04-24 09:29 | 36.20507 | 129.95534 | 34132 ft | 428 kts | 283° |
| 2026-04-24 09:29 | 36.22318 | 129.88501 | 34133 ft | 429 kts | 283° |
| 2026-04-24 09:30 | 36.24430 | 129.80273 | 34130 ft | 429 kts | 283° |
| 2026-04-24 09:30 | 36.25931 | 129.74408 | 34133 ft | 430 kts | 283° |
| 2026-04-24 09:31 | 36.27734 | 129.67345 | 34131 ft | 430 kts | 283° |
| 2026-04-24 09:31 | 36.29538 | 129.60261 | 34130 ft | 431 kts | 283° |
| 2026-04-24 09:32 | 36.31339 | 129.53167 | 34134 ft | 432 kts | 283° |
| 2026-04-24 09:32 | 36.33140 | 129.46057 | 34128 ft | 432 kts | 283° |
| 2026-04-24 09:33 | 36.34938 | 129.38933 | 34127 ft | 433 kts | 283° |
| 2026-04-24 09:33 | 36.36737 | 129.31791 | 34124 ft | 434 kts | 283° |
| 2026-04-24 09:34 | 36.38534 | 129.24632 | 34122 ft | 435 kts | 283° |
| 2026-04-24 09:34 | 36.40318 | 129.17511 | 34123 ft | 436 kts | 283° |
| 2026-04-24 09:35 | 36.42112 | 129.10321 | 34114 ft | 436 kts | 283° |
| 2026-04-24 09:35 | 36.43904 | 129.03120 | 34113 ft | 437 kts | 283° |
| 2026-04-24 09:36 | 36.45695 | 128.95908 | 34109 ft | 437 kts | 283° |
| 2026-04-24 09:36 | 36.47485 | 128.88677 | 34099 ft | 438 kts | 283° |
| 2026-04-24 09:37 | 36.49270 | 128.81436 | 34092 ft | 439 kts | 283° |
| 2026-04-24 09:37 | 36.51056 | 128.74181 | 34088 ft | 440 kts | 284° |
| 2026-04-24 09:38 | 36.52842 | 128.66902 | 34090 ft | 441 kts | 284° |
| 2026-04-24 09:38 | 36.54626 | 128.59605 | 34080 ft | 441 kts | 284° |
| 2026-04-24 09:39 | 36.56410 | 128.52295 | 34077 ft | 442 kts | 284° |
| 2026-04-24 09:39 | 36.58190 | 128.44972 | 34074 ft | 443 kts | 284° |
| 2026-04-24 09:40 | 36.59970 | 128.37631 | 34072 ft | 443 kts | 284° |
| 2026-04-24 09:40 | 36.61747 | 128.30276 | 34074 ft | 444 kts | 284° |
| 2026-04-24 09:41 | 36.63524 | 128.22905 | 34062 ft | 445 kts | 284° |
| 2026-04-24 09:41 | 36.65299 | 128.15522 | 34068 ft | 445 kts | 284° |
| 2026-04-24 09:42 | 36.67070 | 128.08122 | 34052 ft | 446 kts | 284° |
| 2026-04-24 09:42 | 36.68840 | 128.00710 | 34051 ft | 447 kts | 284° |
| 2026-04-24 09:43 | 36.70598 | 127.93329 | 34050 ft | 448 kts | 284° |
| 2026-04-24 09:43 | 36.72378 | 127.85832 | 34039 ft | 449 kts | 284° |
| 2026-04-24 09:44 | 36.74134 | 127.78408 | 34033 ft | 450 kts | 284° |
| 2026-04-24 09:44 | 36.75900 | 127.70925 | 34030 ft | 450 kts | 285° |
| 2026-04-24 09:45 | 36.77663 | 127.63429 | 34028 ft | 451 kts | 285° |
| 2026-04-24 09:45 | 36.79423 | 127.55921 | 34023 ft | 451 kts | 285° |
| 2026-04-24 09:46 | 36.81180 | 127.48399 | 34025 ft | 452 kts | 285° |
| 2026-04-24 09:46 | 36.82933 | 127.40869 | 34027 ft | 452 kts | 285° |
| 2026-04-24 09:47 | 36.84686 | 127.33325 | 34021 ft | 453 kts | 285° |
| 2026-04-24 09:47 | 36.86435 | 127.25765 | 34008 ft | 453 kts | 285° |
| 2026-04-24 09:48 | 36.88181 | 127.18198 | 34004 ft | 454 kts | 285° |
| 2026-04-24 09:48 | 36.89925 | 127.10616 | 34004 ft | 454 kts | 285° |
| 2026-04-24 09:49 | 36.91664 | 127.03029 | 34005 ft | 454 kts | 285° |
| 2026-04-24 09:49 | 36.93399 | 126.95436 | 34005 ft | 454 kts | 285° |
| 2026-04-24 09:50 | 36.95130 | 126.87837 | 34005 ft | 455 kts | 286° |
| 2026-04-24 09:50 | 36.96858 | 126.80223 | 34009 ft | 455 kts | 286° |
| 2026-04-24 09:51 | 36.98581 | 126.72608 | 34019 ft | 455 kts | 286° |
| 2026-04-24 09:51 | 37.00301 | 126.64981 | 34030 ft | 456 kts | 286° |
| 2026-04-24 09:52 | 37.02017 | 126.57347 | 34043 ft | 456 kts | 286° |
| 2026-04-24 09:52 | 37.03730 | 126.49703 | 34049 ft | 456 kts | 286° |
| 2026-04-24 09:53 | 37.05438 | 126.42056 | 34054 ft | 456 kts | 287° |
| 2026-04-24 09:53 | 37.07141 | 126.34403 | 34060 ft | 456 kts | 287° |
| 2026-04-24 09:54 | 37.08839 | 126.26748 | 34065 ft | 456 kts | 287° |
| 2026-04-24 09:54 | 37.10522 | 126.19137 | 34071 ft | 456 kts | 287° |
| 2026-04-24 09:55 | 37.12222 | 126.11423 | 34075 ft | 456 kts | 287° |
| 2026-04-24 09:55 | 37.13905 | 126.03758 | 34075 ft | 456 kts | 287° |
| 2026-04-24 09:56 | 37.15572 | 125.96142 | 34072 ft | 456 kts | 287° |
| 2026-04-24 09:56 | 37.17244 | 125.88477 | 34089 ft | 456 kts | 287° |
| 2026-04-24 09:57 | 37.18911 | 125.80812 | 34089 ft | 455 kts | 286° |
| 2026-04-24 09:57 | 37.20571 | 125.73148 | 34073 ft | 455 kts | 286° |
| 2026-04-24 09:58 | 37.22225 | 125.65488 | 34080 ft | 455 kts | 286° |
| 2026-04-24 09:58 | 37.23873 | 125.57831 | 34093 ft | 454 kts | 286° |
| 2026-04-24 09:59 | 37.25514 | 125.50177 | 34068 ft | 454 kts | 286° |
| 2026-04-24 09:59 | 37.27149 | 125.42526 | 34074 ft | 454 kts | 286° |
| 2026-04-24 10:00 | 37.28778 | 125.34880 | 34082 ft | 453 kts | 286° |
| 2026-04-24 10:00 | 37.30400 | 125.27237 | 34074 ft | 453 kts | 285° |
| 2026-04-24 10:01 | 37.32016 | 125.19596 | 34084 ft | 452 kts | 285° |
| 2026-04-24 10:01 | 37.33625 | 125.11961 | 34074 ft | 452 kts | 285° |
| 2026-04-24 10:02 | 37.35228 | 125.04330 | 34066 ft | 452 kts | 285° |
| 2026-04-24 10:02 | 37.36825 | 124.96703 | 34074 ft | 451 kts | 285° |
| 2026-04-24 10:03 | 37.38417 | 124.89076 | 34077 ft | 451 kts | 285° |
| 2026-04-24 10:03 | 37.40002 | 124.81450 | 34078 ft | 451 kts | 285° |
| 2026-04-24 10:04 | 37.41583 | 124.73821 | 34081 ft | 450 kts | 285° |
| 2026-04-24 10:04 | 37.42894 | 124.67485 | 34075 ft | 451 kts | 285° |
| 2026-04-24 10:05 | 37.44462 | 124.59862 | 34080 ft | 450 kts | 285° |
| 2026-04-24 10:05 | 37.46024 | 124.52242 | 34074 ft | 449 kts | 285° |
| 2026-04-24 10:06 | 37.48358 | 124.40808 | 34075 ft | 449 kts | 284° |
| 2026-04-24 10:07 | 37.49903 | 124.33203 | 34056 ft | 448 kts | 284° |
| 2026-04-24 10:07 | 37.51441 | 124.25610 | 34057 ft | 447 kts | 284° |
| 2026-04-24 10:08 | 37.52973 | 124.18016 | 34067 ft | 447 kts | 284° |
| 2026-04-24 10:08 | 37.54499 | 124.10430 | 34057 ft | 447 kts | 284° |
| 2026-04-24 10:09 | 37.56019 | 124.02841 | 34049 ft | 447 kts | 284° |
| 2026-04-24 10:09 | 37.57534 | 123.95254 | 34078 ft | 446 kts | 284° |
| 2026-04-24 10:10 | 37.59044 | 123.87661 | 34055 ft | 446 kts | 283° |
| 2026-04-24 10:10 | 37.60549 | 123.80068 | 34053 ft | 446 kts | 283° |
| 2026-04-24 10:11 | 37.62048 | 123.72475 | 34065 ft | 446 kts | 283° |
| 2026-04-24 10:11 | 37.63542 | 123.64883 | 34061 ft | 446 kts | 283° |
| 2026-04-24 10:12 | 37.65031 | 123.57289 | 34049 ft | 446 kts | 283° |
| 2026-04-24 10:12 | 37.66514 | 123.49691 | 34053 ft | 446 kts | 283° |
| 2026-04-24 10:13 | 37.67992 | 123.42099 | 34058 ft | 446 kts | 283° |
| 2026-04-24 10:13 | 37.69465 | 123.34499 | 34045 ft | 446 kts | 283° |
| 2026-04-24 10:14 | 37.70923 | 123.26950 | 34043 ft | 445 kts | 283° |
| 2026-04-24 10:14 | 37.72386 | 123.19349 | 34055 ft | 445 kts | 283° |
| 2026-04-24 10:15 | 37.73843 | 123.11747 | 34041 ft | 445 kts | 283° |
| 2026-04-24 10:15 | 37.75296 | 123.04139 | 34044 ft | 445 kts | 282° |
| 2026-04-24 10:16 | 37.76743 | 122.96533 | 34037 ft | 445 kts | 282° |
| 2026-04-24 10:16 | 37.78185 | 122.88925 | 34037 ft | 445 kts | 282° |
| 2026-04-24 10:17 | 37.79622 | 122.81314 | 34033 ft | 445 kts | 282° |
| 2026-04-24 10:17 | 37.81055 | 122.73698 | 34033 ft | 445 kts | 282° |
| 2026-04-24 10:18 | 37.82482 | 122.66081 | 34028 ft | 445 kts | 282° |
| 2026-04-24 10:18 | 37.83904 | 122.58464 | 34026 ft | 445 kts | 282° |
| 2026-04-24 10:19 | 37.85322 | 122.50841 | 34019 ft | 445 kts | 282° |
| 2026-04-24 10:19 | 37.86734 | 122.43217 | 34020 ft | 445 kts | 282° |
| 2026-04-24 10:20 | 37.88143 | 122.35586 | 34015 ft | 445 kts | 282° |
| 2026-04-24 10:20 | 37.89546 | 122.27951 | 34013 ft | 445 kts | 282° |
| 2026-04-24 10:21 | 37.90945 | 122.20311 | 34007 ft | 446 kts | 282° |
| 2026-04-24 10:21 | 37.92340 | 122.12663 | 34005 ft | 446 kts | 282° |
| 2026-04-24 10:22 | 37.93720 | 122.05063 | 34002 ft | 446 kts | 282° |
| 2026-04-24 10:22 | 37.95106 | 121.97406 | 34002 ft | 446 kts | 282° |
| 2026-04-24 10:23 | 37.96487 | 121.89744 | 33998 ft | 446 kts | 282° |
| 2026-04-24 10:23 | 37.97863 | 121.82080 | 33995 ft | 446 kts | 281° |
| 2026-04-24 10:24 | 37.99234 | 121.74411 | 33990 ft | 446 kts | 281° |
| 2026-04-24 10:24 | 38.00601 | 121.66737 | 33991 ft | 446 kts | 281° |
| 2026-04-24 10:25 | 38.01963 | 121.59060 | 33987 ft | 446 kts | 281° |
| 2026-04-24 10:25 | 38.03320 | 121.51377 | 33986 ft | 446 kts | 281° |
| 2026-04-24 10:26 | 38.04532 | 121.44489 | 33984 ft | 446 kts | 281° |
| 2026-04-24 10:26 | 38.05667 | 121.38019 | 33998 ft | 446 kts | 281° |
| 2026-04-24 10:27 | 38.06914 | 121.30889 | 33978 ft | 446 kts | 281° |
| 2026-04-24 10:27 | 38.08197 | 121.23510 | 33975 ft | 447 kts | 281° |
| 2026-04-24 10:28 | 38.09475 | 121.16134 | 33971 ft | 447 kts | 281° |
| 2026-04-24 10:28 | 38.10764 | 121.08673 | 33974 ft | 447 kts | 281° |
| 2026-04-24 10:29 | 38.12041 | 121.01250 | 33973 ft | 448 kts | 281° |
| 2026-04-24 10:29 | 38.13373 | 120.93472 | 33982 ft | 447 kts | 281° |
| 2026-04-24 10:30 | 38.14936 | 120.85882 | 33972 ft | 448 kts | 287° |
| 2026-04-24 10:30 | 38.16916 | 120.78388 | 33964 ft | 448 kts | 287° |
| 2026-04-24 10:31 | 38.18791 | 120.70843 | 33966 ft | 448 kts | 286° |
| 2026-04-24 10:31 | 38.20600 | 120.63270 | 33961 ft | 448 kts | 285° |
| 2026-04-24 10:32 | 38.22392 | 120.55680 | 33959 ft | 448 kts | 285° |
| 2026-04-24 10:32 | 38.24181 | 120.48082 | 33953 ft | 449 kts | 285° |
| 2026-04-24 10:33 | 38.25967 | 120.40477 | 33953 ft | 449 kts | 285° |
| 2026-04-24 10:33 | 38.27750 | 120.32860 | 33947 ft | 449 kts | 285° |
| 2026-04-24 10:34 | 38.29529 | 120.25233 | 33948 ft | 450 kts | 285° |
| 2026-04-24 10:34 | 38.31305 | 120.17597 | 33949 ft | 450 kts | 286° |
| 2026-04-24 10:35 | 38.33078 | 120.09950 | 33945 ft | 450 kts | 286° |
| 2026-04-24 10:35 | 38.34846 | 120.02296 | 33945 ft | 451 kts | 286° |
| 2026-04-24 10:36 | 38.36611 | 119.94634 | 33945 ft | 451 kts | 286° |
| 2026-04-24 10:36 | 38.38371 | 119.86965 | 33940 ft | 451 kts | 286° |
| 2026-04-24 10:37 | 38.40128 | 119.79287 | 33939 ft | 451 kts | 285° |
| 2026-04-24 10:37 | 38.41869 | 119.71653 | 33936 ft | 452 kts | 286° |
| 2026-04-24 10:38 | 38.43617 | 119.63960 | 33940 ft | 452 kts | 285° |
| 2026-04-24 10:38 | 38.45362 | 119.56255 | 33936 ft | 452 kts | 285° |
| 2026-04-24 10:39 | 38.47103 | 119.48545 | 33934 ft | 452 kts | 285° |
| 2026-04-24 10:39 | 38.48838 | 119.40831 | 33934 ft | 453 kts | 285° |
| 2026-04-24 10:40 | 38.50571 | 119.33102 | 33937 ft | 453 kts | 285° |
| 2026-04-24 10:40 | 38.52300 | 119.25367 | 33930 ft | 453 kts | 285° |
| 2026-04-24 10:41 | 38.54023 | 119.17626 | 33930 ft | 453 kts | 285° |
| 2026-04-24 10:41 | 38.55744 | 119.09871 | 33931 ft | 454 kts | 285° |
| 2026-04-24 10:42 | 38.57461 | 119.02109 | 33935 ft | 454 kts | 285° |
| 2026-04-24 10:42 | 38.59173 | 118.94338 | 33929 ft | 455 kts | 285° |
| 2026-04-24 10:43 | 38.60884 | 118.86550 | 33929 ft | 455 kts | 286° |
| 2026-04-24 10:43 | 38.62589 | 118.78757 | 33918 ft | 456 kts | 286° |
| 2026-04-24 10:43 | 38.63443 | 118.74847 | 33723 ft | 456 kts | 286° |
| 2026-04-24 10:44 | 38.64294 | 118.70940 | 33315 ft | 457 kts | 286° |
| 2026-04-24 10:44 | 38.65146 | 118.67023 | 32911 ft | 458 kts | 286° |
| 2026-04-24 10:44 | 38.65999 | 118.63091 | 32505 ft | 460 kts | 286° |
| 2026-04-24 10:44 | 38.66854 | 118.59141 | 32108 ft | 462 kts | 286° |
| 2026-04-24 10:45 | 38.67712 | 118.55177 | 31722 ft | 463 kts | 286° |
| 2026-04-24 10:45 | 38.68570 | 118.51201 | 31336 ft | 463 kts | 286° |
| 2026-04-24 10:45 | 38.69424 | 118.47236 | 30954 ft | 461 kts | 286° |
| 2026-04-24 10:45 | 38.70262 | 118.43338 | 30589 ft | 459 kts | 287° |
| 2026-04-24 10:46 | 38.71117 | 118.39356 | 30215 ft | 457 kts | 287° |
| 2026-04-24 10:46 | 38.71955 | 118.35448 | 29826 ft | 454 kts | 287° |
| 2026-04-24 10:46 | 38.72777 | 118.31609 | 29402 ft | 452 kts | 287° |
| 2026-04-24 10:46 | 38.73615 | 118.27690 | 28973 ft | 449 kts | 287° |
| 2026-04-24 10:47 | 38.74424 | 118.23897 | 28559 ft | 446 kts | 287° |
| 2026-04-24 10:47 | 38.75236 | 118.20083 | 28143 ft | 443 kts | 287° |
| 2026-04-24 10:47 | 38.76044 | 118.16280 | 27746 ft | 441 kts | 287° |
| 2026-04-24 10:47 | 38.76846 | 118.12504 | 27355 ft | 438 kts | 287° |
| 2026-04-24 10:48 | 38.77642 | 118.08743 | 26962 ft | 436 kts | 287° |
| 2026-04-24 10:48 | 38.78431 | 118.05010 | 26569 ft | 433 kts | 287° |
| 2026-04-24 10:48 | 38.79217 | 118.01289 | 26188 ft | 431 kts | 287° |
| 2026-04-24 10:48 | 38.79996 | 117.97588 | 25809 ft | 429 kts | 287° |
| 2026-04-24 10:49 | 38.80772 | 117.93904 | 25435 ft | 427 kts | 287° |
| 2026-04-24 10:49 | 38.81540 | 117.90245 | 25060 ft | 425 kts | 286° |
| 2026-04-24 10:49 | 38.82305 | 117.86593 | 24706 ft | 423 kts | 286° |
| 2026-04-24 10:49 | 38.83066 | 117.82960 | 24352 ft | 421 kts | 286° |
| 2026-04-24 10:50 | 38.83822 | 117.79338 | 24001 ft | 419 kts | 286° |
| 2026-04-24 10:50 | 38.84573 | 117.75738 | 23647 ft | 417 kts | 286° |
| 2026-04-24 10:50 | 38.85319 | 117.72157 | 23265 ft | 415 kts | 286° |
| 2026-04-24 10:50 | 38.86059 | 117.68594 | 22845 ft | 412 kts | 286° |
| 2026-04-24 10:51 | 38.86795 | 117.65050 | 22439 ft | 410 kts | 286° |
| 2026-04-24 10:51 | 38.87524 | 117.61531 | 22040 ft | 407 kts | 286° |
| 2026-04-24 10:51 | 38.88247 | 117.58035 | 21651 ft | 404 kts | 286° |
| 2026-04-24 10:51 | 38.88964 | 117.54560 | 21251 ft | 402 kts | 286° |
| 2026-04-24 10:52 | 38.89676 | 117.51103 | 20864 ft | 399 kts | 286° |
| 2026-04-24 10:52 | 38.90383 | 117.47669 | 20477 ft | 397 kts | 286° |
| 2026-04-24 10:52 | 38.91085 | 117.44254 | 20087 ft | 395 kts | 286° |
| 2026-04-24 10:52 | 38.91783 | 117.40853 | 19732 ft | 392 kts | 286° |
| 2026-04-24 10:53 | 38.92474 | 117.37480 | 19365 ft | 390 kts | 286° |
| 2026-04-24 10:53 | 38.93160 | 117.34123 | 19005 ft | 388 kts | 286° |
| 2026-04-24 10:53 | 38.93613 | 117.31907 | 18768 ft | 386 kts | 286° |
| 2026-04-24 10:53 | 38.94293 | 117.28575 | 18309 ft | 384 kts | 286° |
| 2026-04-24 10:54 | 38.94960 | 117.25297 | 17783 ft | 375 kts | 286° |
| 2026-04-24 10:54 | 38.95613 | 117.22087 | 17251 ft | 367 kts | 286° |
| 2026-04-24 10:54 | 38.96251 | 117.18949 | 16725 ft | 360 kts | 285° |
| 2026-04-24 10:54 | 38.96875 | 117.15871 | 16180 ft | 353 kts | 285° |
| 2026-04-24 10:55 | 38.97492 | 117.12831 | 15551 ft | 350 kts | 285° |
| 2026-04-24 10:55 | 38.98101 | 117.09824 | 14933 ft | 346 kts | 285° |
| 2026-04-24 10:55 | 38.98704 | 117.06841 | 14328 ft | 343 kts | 285° |
| 2026-04-24 10:55 | 38.99299 | 117.03892 | 13733 ft | 339 kts | 285° |
| 2026-04-24 10:56 | 38.99888 | 117.00967 | 13075 ft | 336 kts | 285° |
| 2026-04-24 10:56 | 39.00470 | 116.98072 | 12428 ft | 333 kts | 284° |
| 2026-04-24 10:56 | 39.01044 | 116.95211 | 11797 ft | 329 kts | 284° |
| 2026-04-24 10:56 | 39.01612 | 116.92378 | 11171 ft | 325 kts | 284° |
| 2026-04-24 10:57 | 39.02174 | 116.89574 | 10561 ft | 322 kts | 284° |
| 2026-04-24 10:57 | 39.02721 | 116.86843 | 9974 ft | 318 kts | 284° |
| 2026-04-24 10:57 | 39.03269 | 116.84103 | 9344 ft | 314 kts | 284° |
| 2026-04-24 10:57 | 39.03808 | 116.81397 | 8695 ft | 311 kts | 284° |
| 2026-04-24 10:58 | 39.04341 | 116.78723 | 8069 ft | 307 kts | 283° |
| 2026-04-24 10:58 | 39.04862 | 116.76109 | 7437 ft | 296 kts | 283° |
| 2026-04-24 10:58 | 39.05362 | 116.73596 | 6842 ft | 284 kts | 283° |
| 2026-04-24 10:58 | 39.05845 | 116.71165 | 6298 ft | 277 kts | 283° |
| 2026-04-24 10:59 | 39.06314 | 116.68799 | 5867 ft | 268 kts | 283° |
| 2026-04-24 10:59 | 39.06767 | 116.66515 | 5438 ft | 259 kts | 282° |
| 2026-04-24 10:59 | 39.07208 | 116.64295 | 5018 ft | 255 kts | 282° |
| 2026-04-24 10:59 | 39.07645 | 116.62077 | 4603 ft | 256 kts | 282° |
| 2026-04-24 11:00 | 39.08080 | 116.59880 | 4260 ft | 252 kts | 281° |
| 2026-04-24 11:00 | 39.08518 | 116.57656 | 4165 ft | 257 kts | 281° |
| 2026-04-24 11:00 | 39.08956 | 116.55433 | 4070 ft | 255 kts | 281° |
| 2026-04-24 11:00 | 39.09392 | 116.53213 | 4002 ft | 257 kts | 281° |
| 2026-04-24 11:01 | 39.09832 | 116.50981 | 3994 ft | 257 kts | 281° |
| 2026-04-24 11:01 | 39.10275 | 116.48763 | 3995 ft | 255 kts | 283° |
| 2026-04-24 11:01 | 39.11146 | 116.46755 | 3997 ft | 264 kts | 308° |
| 2026-04-24 11:01 | 39.12667 | 116.45393 | 4012 ft | 274 kts | 335° |
| 2026-04-24 11:02 | 39.14514 | 116.44872 | 3993 ft | 265 kts | 350° |
| 2026-04-24 11:02 | 39.16304 | 116.44831 | 4001 ft | 256 kts | 359° |
| 2026-04-24 11:02 | 39.18070 | 116.44832 | 4001 ft | 256 kts | 354° |
| 2026-04-24 11:02 | 39.19839 | 116.44652 | 4000 ft | 254 kts | 349° |
| 2026-04-24 11:03 | 39.21594 | 116.44365 | 3998 ft | 255 kts | 349° |
| 2026-04-24 11:03 | 39.23354 | 116.44092 | 4000 ft | 254 kts | 349° |
| 2026-04-24 11:03 | 39.25108 | 116.43817 | 3998 ft | 254 kts | 349° |
| 2026-04-24 11:03 | 39.26873 | 116.43537 | 3998 ft | 256 kts | 349° |
| 2026-04-24 11:04 | 39.28634 | 116.43262 | 3936 ft | 254 kts | 349° |
| 2026-04-24 11:04 | 39.30366 | 116.42989 | 3632 ft | 247 kts | 349° |
| 2026-04-24 11:04 | 39.32053 | 116.42725 | 3284 ft | 241 kts | 349° |
| 2026-04-24 11:04 | 39.33699 | 116.42463 | 2962 ft | 236 kts | 349° |
| 2026-04-24 11:05 | 39.35311 | 116.42211 | 2657 ft | 231 kts | 349° |
| 2026-04-24 11:05 | 39.36898 | 116.41961 | 2361 ft | 229 kts | 349° |
| 2026-04-24 11:05 | 39.38473 | 116.41711 | 2068 ft | 226 kts | 349° |
| 2026-04-24 11:05 | 39.40005 | 116.41470 | 1755 ft | 217 kts | 349° |
| 2026-04-24 11:06 | 39.41468 | 116.41231 | 1495 ft | 205 kts | 351° |
| 2026-04-24 11:06 | 39.42857 | 116.41025 | 1173 ft | 197 kts | 351° |
| 2026-04-24 11:06 | 39.44155 | 116.40843 | 923 ft | 178 kts | 350° |
| 2026-04-24 11:06 | 39.45321 | 116.40600 | 638 ft | 161 kts | 347° |
| 2026-04-24 11:07 | 39.47597 | 116.40266 | 265 ft | 156 kts | 353° |
| 2026-04-24 11:07 | 39.48633 | 116.40107 | 112 ft | 147 kts | 352° |
| 2026-04-24 11:07 | 39.49567 | 116.39963 | 96 ft | 115 kts | 353° |
| 2026-04-24 11:08 | 39.50193 | 116.39864 | 102 ft | 69 kts | 353° |
| 2026-04-24 11:08 | 39.50583 | 116.39872 | 99 ft | 39 kts | 18° |
| 2026-04-24 11:08 | 39.50793 | 116.39961 | 93 ft | 16 kts | 19° |
| 2026-04-24 11:08 | 39.50848 | 116.40033 | 94 ft | 7 kts | 90° |
| 2026-04-24 11:09 | 39.50848 | 116.40077 | 93 ft | 3 kts | 90° |
| 2026-04-24 11:09 | 39.50849 | 116.40121 | 95 ft | 9 kts | 87° |
| 2026-04-24 11:09 | 39.50852 | 116.40188 | 94 ft | 6 kts | 86° |
| 2026-04-24 11:09 | 39.50857 | 116.40229 | 93 ft | 7 kts | 78° |
| 2026-04-24 11:10 | 39.50873 | 116.40313 | 96 ft | 8 kts | 75° |
| 2026-04-24 11:10 | 39.50887 | 116.40385 | 99 ft | 6 kts | 80° |
| 2026-04-24 11:10 | 39.50872 | 116.40402 | 101 ft | 4 kts | 138° |
| 2026-04-24 11:10 | 39.50822 | 116.40459 | 92 ft | 0 kts | 139° |